createdAt,value
2022-10-30T00:00:55.361Z,96391.13
2022-10-30T00:03:23.011Z,96384.38
2022-10-30T00:05:51.959Z,96390.38
2022-10-30T00:08:21.151Z,96383.94
2022-10-30T00:10:50.466Z,96373.69
2022-10-30T00:13:19.377Z,96381.25
2022-10-30T00:15:51.527Z,96380.72
2022-10-30T00:18:21.001Z,96372.09
2022-10-30T00:20:48.724Z,96381.28
2022-10-30T00:23:16.617Z,96378.66
2022-10-30T00:25:44.153Z,96371.66
2022-10-30T00:28:11.539Z,96376.25
2022-10-30T00:30:39.248Z,96376.03
2022-10-30T00:33:06.735Z,96375.00
2022-10-30T00:35:34.468Z,96375.28
2022-10-30T00:38:03.240Z,96376.97
2022-10-30T00:40:30.965Z,96367.00
2022-10-30T00:42:58.471Z,96364.38
2022-10-30T00:45:26.094Z,96355.47
2022-10-30T00:47:56.855Z,96366.06
2022-10-30T00:53:03.884Z,96364.19
2022-10-30T00:55:34.683Z,96354.78
2022-10-30T00:58:03.957Z,96353.19
2022-10-30T01:00:31.561Z,96358.59
2022-10-30T01:02:59.463Z,96353.47
2022-10-30T01:05:29.249Z,96353.75
2022-10-30T01:07:56.932Z,96354.31
2022-10-30T01:10:25.062Z,96352.72
2022-10-30T01:12:54.185Z,96357.31
2022-10-30T01:15:27.353Z,96350.88
2022-10-30T01:18:18.265Z,96345.47
2022-10-30T01:20:59.204Z,96350.66
2022-10-30T01:24:00.860Z,96347.44
2022-10-30T01:26:57.482Z,96344.19
2022-10-30T01:30:02.802Z,96341.00
2022-10-30T01:32:55.942Z,96339.97
2022-10-30T01:35:32.818Z,96342.13
2022-10-30T01:38:23.763Z,96340.53
2022-10-30T01:40:53.903Z,96335.72
2022-10-30T01:43:21.466Z,96339.50
2022-10-30T01:46:13.015Z,96334.97
2022-10-30T01:48:43.453Z,96335.25
2022-10-30T01:51:20.473Z,96339.03
2022-10-30T01:53:57.112Z,96331.22
2022-10-30T01:56:34.165Z,96332.63
2022-10-30T01:59:19.380Z,96325.34
2022-10-30T02:01:47.178Z,96321.56
2022-10-30T02:04:14.866Z,96324.53
2022-10-30T02:06:42.889Z,96318.34
2022-10-30T02:09:11.319Z,96320.22
2022-10-30T02:11:47.336Z,96318.63
2022-10-30T02:14:22.212Z,96315.91
2022-10-30T02:16:52.308Z,96311.09
2022-10-30T02:19:22.043Z,96315.41
2022-10-30T02:21:50.488Z,96313.50
2022-10-30T02:24:18.774Z,96306.19
2022-10-30T02:26:46.800Z,96314.09
2022-10-30T02:29:15.577Z,96314.63
2022-10-30T02:31:43.069Z,96321.91
2022-10-30T02:34:11.828Z,96301.41
2022-10-30T02:36:39.431Z,96309.50
2022-10-30T02:39:07.077Z,96304.66
2022-10-30T02:41:36.492Z,96302.47
2022-10-30T02:44:04.869Z,96302.47
2022-10-30T02:46:33.198Z,96312.47
2022-10-30T02:49:00.960Z,96306.53
2022-10-30T02:51:28.651Z,96304.66
2022-10-30T02:53:56.230Z,96309.50
2022-10-30T02:56:23.788Z,96306.28
2022-10-30T02:58:52.510Z,96303.56
2022-10-30T03:01:20.333Z,96309.56
2022-10-30T03:03:49.189Z,96303.38
2022-10-30T03:06:17.424Z,96304.75
2022-10-30T03:08:48.994Z,96305.31
2022-10-30T03:11:18.330Z,96305.88
2022-10-30T03:13:48.005Z,96301.63
2022-10-30T03:16:26.852Z,96304.59
2022-10-30T03:18:56.049Z,96310.28
2022-10-30T03:21:25.866Z,96311.38
2022-10-30T03:23:54.161Z,96303.34
2022-10-30T03:26:22.811Z,96294.72
2022-10-30T03:28:53.185Z,96303.91
2022-10-30T03:31:28.254Z,96302.28
2022-10-30T03:34:08.765Z,96310.91
2022-10-30T03:36:36.383Z,96295.34
2022-10-30T03:39:04.823Z,96301.84
2022-10-30T03:41:34.261Z,96289.97
2022-10-30T03:44:01.979Z,96293.56
2022-10-30T03:46:31.485Z,96299.75
2022-10-30T03:49:12.985Z,96290.06
2022-10-30T03:51:40.646Z,96292.25
2022-10-30T03:54:08.175Z,96277.81
2022-10-30T03:56:35.747Z,96292.84
2022-10-30T03:59:05.455Z,96294.72
2022-10-30T04:01:36.892Z,96301.44
2022-10-30T04:04:04.863Z,96292.03
2022-10-30T04:06:33.452Z,96300.69
2022-10-30T04:09:01.405Z,96304.19
2022-10-30T04:11:35.174Z,96295.03
2022-10-30T04:14:04.904Z,96306.09
2022-10-30T04:16:33.518Z,96295.31
2022-10-30T04:19:02.174Z,96307.75
2022-10-30T04:21:29.647Z,96303.69
2022-10-30T04:23:58.588Z,96297.28
2022-10-30T04:26:31.464Z,96302.69
2022-10-30T04:29:03.870Z,96297.84
2022-10-30T04:31:31.845Z,96294.38
2022-10-30T04:34:01.367Z,96301.16
2022-10-30T04:36:34.005Z,96299.25
2022-10-30T04:39:02.612Z,96306.53
2022-10-30T04:41:31.141Z,96300.09
2022-10-30T04:44:07.072Z,96300.91
2022-10-30T04:46:35.665Z,96292.06
2022-10-30T04:49:09.590Z,96299.06
2022-10-30T04:51:38.171Z,96295.28
2022-10-30T04:54:07.568Z,96299.63
2022-10-30T04:56:37.324Z,96305.00
2022-10-30T04:59:05.126Z,96302.59
2022-10-30T05:01:34.142Z,96295.31
2022-10-30T05:04:03.349Z,96304.75
2022-10-30T05:06:33.352Z,96306.69
2022-10-30T05:09:00.946Z,96314.81
2022-10-30T05:11:38.636Z,96316.44
2022-10-30T05:14:09.257Z,96315.38
2022-10-30T05:16:38.451Z,96308.38
2022-10-30T05:19:07.249Z,96315.69
2022-10-30T05:21:35.680Z,96309.50
2022-10-30T05:24:04.364Z,96325.13
2022-10-30T05:26:39.730Z,96329.47
2022-10-30T05:29:08.349Z,96317.06
2022-10-30T05:31:36.271Z,96320.84
2022-10-30T05:34:29.892Z,96316.81
2022-10-30T05:36:57.593Z,96309.00
2022-10-30T05:39:25.198Z,96319.81
2022-10-30T05:41:53.289Z,96317.94
2022-10-30T05:44:34.662Z,96323.03
2022-10-30T05:47:11.398Z,96311.72
2022-10-30T05:49:41.227Z,96321.16
2022-10-30T05:52:13.523Z,96335.97
2022-10-30T05:54:41.159Z,96317.66
2022-10-30T05:57:18.027Z,96320.34
2022-10-30T05:59:45.994Z,96329.50
2022-10-30T06:02:14.605Z,96323.59
2022-10-30T06:04:42.659Z,96326.00
2022-10-30T06:07:13.401Z,96320.03
2022-10-30T06:09:41.003Z,96326.81
2022-10-30T06:12:36.315Z,96322.50
2022-10-30T06:15:24.684Z,96333.25
2022-10-30T06:17:54.356Z,96332.44
2022-10-30T06:20:35.588Z,96327.84
2022-10-30T06:23:27.221Z,96336.47
2022-10-30T06:26:05.437Z,96327.31
2022-10-30T06:28:58.707Z,96327.84
2022-10-30T06:31:26.206Z,96318.41
2022-10-30T06:33:53.959Z,96327.28
2022-10-30T06:36:22.342Z,96328.91
2022-10-30T06:38:50.190Z,96332.13
2022-10-30T06:41:21.073Z,96322.72
2022-10-30T06:44:05.729Z,96320.75
2022-10-30T06:46:37.550Z,96324.81
2022-10-30T06:49:05.679Z,96328.03
2022-10-30T06:51:33.280Z,96306.78
2022-10-30T06:54:01.513Z,96321.31
2022-10-30T06:56:40.968Z,96320.19
2022-10-30T06:59:17.367Z,96321.81
2022-10-30T07:02:11.237Z,96312.91
2022-10-30T07:05:03.740Z,96325.53
2022-10-30T07:07:31.303Z,96322.56
2022-10-30T07:09:59.740Z,96317.41
2022-10-30T07:12:54.798Z,96320.66
2022-10-30T07:18:20.943Z,96315.47
2022-10-30T07:20:55.654Z,96315.72
2022-10-30T07:23:24.325Z,96321.59
2022-10-30T07:26:04.035Z,96319.44
2022-10-30T07:28:37.972Z,96310.25
2022-10-30T07:31:49.558Z,96312.31
2022-10-30T07:34:49.823Z,96312.03
2022-10-30T07:37:49.418Z,96312.25
2022-10-30T07:40:18.679Z,96306.56
2022-10-30T07:43:16.112Z,96311.38
2022-10-30T07:46:03.066Z,96311.03
2022-10-30T07:48:56.921Z,96307.47
2022-10-30T07:51:29.672Z,96300.13
2022-10-30T07:53:57.140Z,96298.47
2022-10-30T07:56:25.983Z,96297.84
2022-10-30T07:58:53.429Z,96293.16
2022-10-30T08:01:57.479Z,96293.34
2022-10-30T08:04:45.055Z,96289.25
2022-10-30T08:07:37.228Z,96292.09
2022-10-30T08:10:06.945Z,96276.34
2022-10-30T08:12:35.347Z,96283.22
2022-10-30T08:15:05.359Z,96279.88
2022-10-30T08:17:32.952Z,96276.53
2022-10-30T08:20:00.702Z,96270.16
2022-10-30T08:22:28.241Z,96273.00
2022-10-30T08:25:01.102Z,96275.56
2022-10-30T08:27:31.629Z,96278.16
2022-10-30T08:29:59.205Z,96274.69
2022-10-30T08:32:26.788Z,96272.31
2022-10-30T08:35:18.637Z,96266.09
2022-10-30T08:37:47.649Z,96268.03
2022-10-30T08:40:18.854Z,96271.00
2022-10-30T08:42:58.038Z,96267.41
2022-10-30T08:45:31.444Z,96273.06
2022-10-30T08:48:20.309Z,96271.03
2022-10-30T08:50:47.948Z,96260.34
2022-10-30T08:53:20.973Z,96260.13
2022-10-30T08:55:51.770Z,96262.91
2022-10-30T08:58:26.343Z,96267.94
2022-10-30T09:00:58.619Z,96251.78
2022-10-30T09:04:06.009Z,96250.66
2022-10-30T09:06:56.350Z,96249.66
2022-10-30T09:09:42.313Z,96249.47
2022-10-30T09:12:10.448Z,96252.56
2022-10-30T09:14:43.165Z,96249.47
2022-10-30T09:17:12.716Z,96246.47
2022-10-30T09:19:44.312Z,96238.69
2022-10-30T09:22:19.941Z,96238.72
2022-10-30T09:24:47.412Z,96241.00
2022-10-30T09:27:43.011Z,96241.00
2022-10-30T09:30:15.599Z,96242.63
2022-10-30T09:32:49.923Z,96235.59
2022-10-30T09:35:22.962Z,96227.56
2022-10-30T09:37:52.050Z,96228.47
2022-10-30T09:40:24.854Z,96230.69
2022-10-30T09:43:02.498Z,96235.28
2022-10-30T09:45:58.805Z,96232.06
2022-10-30T09:48:51.754Z,96224.59
2022-10-30T09:51:48.551Z,96217.09
2022-10-30T09:54:21.345Z,96207.34
2022-10-30T09:57:02.453Z,96205.16
2022-10-30T09:59:30.892Z,96196.84
2022-10-30T10:02:37.752Z,96197.72
2022-10-30T10:05:19.549Z,96190.63
2022-10-30T10:08:11.712Z,96187.28
2022-10-30T10:11:23.433Z,96178.88
2022-10-30T10:14:01.753Z,96181.53
2022-10-30T10:16:35.366Z,96177.38
2022-10-30T10:19:22.781Z,96168.06
2022-10-30T10:22:04.133Z,96178.53
2022-10-30T10:24:35.909Z,96161.84
2022-10-30T10:27:06.282Z,96169.13
2022-10-30T10:30:16.297Z,96157.13
2022-10-30T10:33:01.171Z,96153.50
2022-10-30T10:35:35.166Z,96163.56
2022-10-30T10:38:19.280Z,96153.53
2022-10-30T10:40:52.940Z,96152.94
2022-10-30T10:44:22.913Z,96143.59
2022-10-30T10:47:08.225Z,96141.97
2022-10-30T10:49:59.334Z,96130.97
2022-10-30T10:53:04.040Z,96128.00
2022-10-30T10:55:37.608Z,96123.81
2022-10-30T10:58:33.249Z,96121.44
2022-10-30T11:01:00.985Z,96117.63
2022-10-30T11:03:35.773Z,96114.53
2022-10-30T11:06:22.922Z,96108.59
2022-10-30T11:08:52.912Z,96110.75
2022-10-30T11:11:21.502Z,96110.88
2022-10-30T11:13:50.263Z,96100.72
2022-10-30T11:16:43.003Z,96097.97
2022-10-30T11:19:10.785Z,96093.78
2022-10-30T11:21:42.119Z,96089.47
2022-10-30T11:24:33.831Z,96095.81
2022-10-30T11:27:23.601Z,96094.19
2022-10-30T11:29:53.928Z,96081.69
2022-10-30T11:32:23.002Z,96080.91
2022-10-30T11:35:08.853Z,96087.44
2022-10-30T11:37:38.959Z,96070.72
2022-10-30T11:40:27.891Z,96071.66
2022-10-30T11:43:03.871Z,96063.75
2022-10-30T11:45:34.665Z,96059.66
2022-10-30T11:48:03.201Z,96062.34
2022-10-30T11:50:32.644Z,96053.06
2022-10-30T11:53:20.168Z,96049.41
2022-10-30T11:55:48.438Z,96055.69
2022-10-30T11:58:30.968Z,96041.56
2022-10-30T12:01:23.394Z,96037.66
2022-10-30T12:03:51.769Z,96036.25
2022-10-30T12:06:29.239Z,96035.22
2022-10-30T12:09:01.993Z,96032.88
2022-10-30T12:11:35.967Z,96029.31
2022-10-30T12:14:04.490Z,96028.47
2022-10-30T12:16:33.216Z,96024.75
2022-10-30T12:19:06.766Z,96025.78
2022-10-30T12:21:40.821Z,96024.91
2022-10-30T12:24:16.742Z,96029.59
2022-10-30T12:26:47.926Z,96019.63
2022-10-30T12:29:18.016Z,96014.34
2022-10-30T12:31:48.435Z,96018.19
2022-10-30T12:34:28.022Z,96013.22
2022-10-30T12:37:02.777Z,96012.34
2022-10-30T12:39:42.818Z,96011.56
2022-10-30T12:42:15.719Z,96003.59
2022-10-30T12:44:47.304Z,96006.41
2022-10-30T12:47:25.947Z,96006.72
2022-10-30T12:53:06.731Z,96001.13
2022-10-30T12:55:35.392Z,96003.03
2022-10-30T12:58:34.992Z,96002.59
2022-10-30T13:01:15.996Z,95993.59
2022-10-30T13:03:51.498Z,95997.53
2022-10-30T13:06:31.645Z,95994.19
2022-10-30T13:09:19.683Z,95996.44
2022-10-30T13:12:01.316Z,95994.66
2022-10-30T13:14:38.694Z,96001.16
2022-10-30T13:17:15.998Z,95986.91
2022-10-30T13:19:46.058Z,95982.28
2022-10-30T13:22:25.465Z,95991.25
2022-10-30T13:25:07.952Z,95995.88
2022-10-30T13:27:43.585Z,95989.91
2022-10-30T13:30:23.652Z,95993.28
2022-10-30T13:32:51.084Z,95988.66
2022-10-30T13:35:27.747Z,95988.47
2022-10-30T13:38:06.812Z,95987.56
2022-10-30T13:40:34.274Z,95990.31
2022-10-30T13:43:18.228Z,95989.94
2022-10-30T13:46:24.828Z,95995.72
2022-10-30T13:49:17.122Z,95996.94
2022-10-30T13:52:08.432Z,95994.72
2022-10-30T13:55:29.857Z,95993.19
2022-10-30T13:58:02.987Z,95996.50
2022-10-30T14:00:56.402Z,95985.72
2022-10-30T14:03:42.692Z,95984.59
2022-10-30T14:06:19.506Z,95990.66
2022-10-30T14:09:31.303Z,95990.44
2022-10-30T14:12:22.739Z,95993.94
2022-10-30T14:14:50.172Z,95990.22
2022-10-30T14:17:19.764Z,95993.88
2022-10-30T14:20:26.748Z,95995.03
2022-10-30T14:23:29.179Z,95990.66
2022-10-30T14:26:34.170Z,95986.22
2022-10-30T14:29:32.381Z,95990.00
2022-10-30T14:32:15.109Z,95987.34
2022-10-30T14:34:58.496Z,95985.84
2022-10-30T14:37:27.024Z,95993.00
2022-10-30T14:39:56.249Z,95979.19
2022-10-30T14:42:45.413Z,95981.88
2022-10-30T14:45:18.319Z,95980.25
2022-10-30T14:48:14.141Z,95979.41
2022-10-30T14:50:53.194Z,95973.34
2022-10-30T14:53:56.314Z,95973.59
2022-10-30T14:56:44.824Z,95978.94
2022-10-30T14:59:15.247Z,95980.41
2022-10-30T15:01:52.824Z,95983.41
2022-10-30T15:04:29.697Z,95979.69
2022-10-30T15:07:04.374Z,95979.88
2022-10-30T15:10:03.762Z,95979.72
2022-10-30T15:13:02.195Z,95986.63
2022-10-30T15:15:30.329Z,95980.88
2022-10-30T15:18:11.652Z,95985.41
2022-10-30T15:20:39.669Z,95984.44
2022-10-30T15:23:38.307Z,95978.69
2022-10-30T15:26:22.411Z,95985.16
2022-10-30T15:28:50.977Z,95979.41
2022-10-30T15:31:27.824Z,95987.47
2022-10-30T15:33:56.775Z,95979.44
2022-10-30T15:36:41.522Z,95987.09
2022-10-30T15:39:16.801Z,95985.69
2022-10-30T15:41:47.817Z,95992.97
2022-10-30T15:44:21.705Z,95993.53
2022-10-30T15:46:56.095Z,95994.88
2022-10-30T15:49:46.862Z,95995.03
2022-10-30T15:52:21.077Z,95998.38
2022-10-30T15:55:13.456Z,96001.28
2022-10-30T15:58:12.909Z,96000.72
2022-10-30T16:00:38.195Z,96002.44
2022-10-30T16:03:14.361Z,96006.19
2022-10-30T16:05:42.004Z,96010.66
2022-10-30T16:08:16.037Z,96014.38
2022-10-30T16:10:44.402Z,96015.84
2022-10-30T16:13:19.117Z,96019.13
2022-10-30T16:15:47.632Z,96018.53
2022-10-30T16:18:30.859Z,96029.78
2022-10-30T16:21:07.945Z,96029.97
2022-10-30T16:23:41.184Z,96037.69
2022-10-30T16:26:12.775Z,96041.75
2022-10-30T16:28:40.221Z,96038.03
2022-10-30T16:31:15.278Z,96033.97
2022-10-30T16:33:46.414Z,96034.94
2022-10-30T16:36:17.036Z,96038.31
2022-10-30T16:38:47.442Z,96045.09
2022-10-30T16:41:16.214Z,96051.63
2022-10-30T16:43:49.670Z,96045.63
2022-10-30T16:46:18.744Z,96050.91
2022-10-30T16:48:52.722Z,96047.53
2022-10-30T16:51:21.550Z,96056.03
2022-10-30T16:53:53.454Z,96062.53
2022-10-30T16:56:32.950Z,96067.84
2022-10-30T16:59:16.832Z,96071.13
2022-10-30T17:01:45.211Z,96070.94
2022-10-30T17:04:15.387Z,96072.34
2022-10-30T17:06:45.314Z,96084.69
2022-10-30T17:09:21.994Z,96068.72
2022-10-30T17:12:07.909Z,96072.88
2022-10-30T17:15:14.316Z,96080.06
2022-10-30T17:17:42.486Z,96083.03
2022-10-30T17:20:19.381Z,96087.50
2022-10-30T17:22:48.338Z,96090.47
2022-10-30T17:25:31.720Z,96092.53
2022-10-30T17:27:59.480Z,96099.84
2022-10-30T17:30:32.074Z,96097.31
2022-10-30T17:32:59.832Z,96103.84
2022-10-30T17:35:27.522Z,96111.44
2022-10-30T17:37:58.407Z,96103.47
2022-10-30T17:40:29.513Z,96103.69
2022-10-30T17:42:57.038Z,96106.19
2022-10-30T17:45:24.570Z,96108.47
2022-10-30T17:47:52.145Z,96109.03
2022-10-30T17:50:19.783Z,96108.91
2022-10-30T17:52:48.418Z,96109.81
2022-10-30T17:55:29.709Z,96110.81
2022-10-30T17:57:57.243Z,96109.47
2022-10-30T18:00:24.996Z,96108.88
2022-10-30T18:02:53.928Z,96104.28
2022-10-30T18:05:33.353Z,96110.44
2022-10-30T18:08:01.071Z,96107.47
2022-10-30T18:10:29.609Z,96100.16
2022-10-30T18:12:58.143Z,96102.75
2022-10-30T18:15:35.742Z,96104.41
2022-10-30T18:18:03.591Z,96103.81
2022-10-30T18:20:31.627Z,96102.75
2022-10-30T18:22:59.977Z,96105.22
2022-10-30T18:25:35.319Z,96094.84
2022-10-30T18:28:03.058Z,96097.00
2022-10-30T18:30:30.696Z,96101.50
2022-10-30T18:32:58.661Z,96098.06
2022-10-30T18:35:30.953Z,96098.72
2022-10-30T18:37:58.522Z,96100.72
2022-10-30T18:40:26.288Z,96102.50
2022-10-30T18:42:53.787Z,96107.03
2022-10-30T18:45:24.166Z,96103.38
2022-10-30T18:47:52.733Z,96105.47
2022-10-30T18:50:22.012Z,96096.22
2022-10-30T18:52:50.119Z,96106.53
2022-10-30T18:55:38.725Z,96094.50
2022-10-30T18:58:07.799Z,96103.81
2022-10-30T19:00:58.273Z,96102.09
2022-10-30T19:03:24.171Z,96105.78
2022-10-30T19:05:52.296Z,96106.47
2022-10-30T19:08:19.787Z,96103.91
2022-10-30T19:10:47.949Z,96111.50
2022-10-30T19:13:17.108Z,96101.09
2022-10-30T19:15:52.114Z,96119.69
2022-10-30T19:18:21.654Z,96118.09
2022-10-30T19:21:04.045Z,96119.91
2022-10-30T19:23:33.404Z,96124.06
2022-10-30T19:26:01.023Z,96110.59
2022-10-30T19:28:30.929Z,96110.47
2022-10-30T19:30:58.507Z,96117.53
2022-10-30T19:33:26.057Z,96112.25
2022-10-30T19:35:55.460Z,96117.22
2022-10-30T19:38:22.936Z,96113.56
2022-10-30T19:40:50.964Z,96119.34
2022-10-30T19:43:18.521Z,96119.97
2022-10-30T19:45:47.233Z,96126.44
2022-10-30T19:48:24.757Z,96124.66
2022-10-30T19:51:02.138Z,96125.63
2022-10-30T19:53:30.704Z,96131.25
2022-10-30T19:55:58.223Z,96127.56
2022-10-30T19:58:26.213Z,96114.47
2022-10-30T20:00:54.417Z,96115.38
2022-10-30T20:03:22.076Z,96130.13
2022-10-30T20:05:50.813Z,96133.03
2022-10-30T20:08:25.744Z,96123.41
2022-10-30T20:10:54.647Z,96124.53
2022-10-30T20:13:26.020Z,96138.00
2022-10-30T20:15:54.698Z,96132.56
2022-10-30T20:18:24.894Z,96133.50
2022-10-30T20:20:54.803Z,96133.34
2022-10-30T20:23:23.489Z,96132.09
2022-10-30T20:25:58.176Z,96131.13
2022-10-30T20:28:30.575Z,96131.75
2022-10-30T20:30:58.450Z,96126.16
2022-10-30T20:33:26.807Z,96132.25
2022-10-30T20:35:55.451Z,96134.47
2022-10-30T20:38:31.535Z,96133.50
2022-10-30T20:41:00.824Z,96134.31
2022-10-30T20:43:34.189Z,96134.97
2022-10-30T20:46:01.955Z,96136.72
2022-10-30T20:48:30.897Z,96122.94
2022-10-30T20:51:00.376Z,96121.34
2022-10-30T20:53:30.432Z,96132.72
2022-10-30T20:55:58.239Z,96134.63
2022-10-30T20:58:26.044Z,96129.84
2022-10-30T21:00:55.457Z,96127.25
2022-10-30T21:03:23.183Z,96125.66
2022-10-30T21:06:01.375Z,96140.88
2022-10-30T21:08:31.614Z,96134.31
2022-10-30T21:11:00.435Z,96133.34
2022-10-30T21:13:28.718Z,96134.00
2022-10-30T21:16:01.140Z,96139.91
2022-10-30T21:18:28.596Z,96128.56
2022-10-30T21:21:11.635Z,96134.78
2022-10-30T21:23:39.164Z,96119.91
2022-10-30T21:26:11.105Z,96131.72
2022-10-30T21:28:40.476Z,96131.72
2022-10-30T21:31:10.964Z,96133.50
2022-10-30T21:33:38.485Z,96127.59
2022-10-30T21:36:14.086Z,96127.25
2022-10-30T21:38:43.183Z,96125.53
2022-10-30T21:41:14.476Z,96116.56
2022-10-30T21:43:42.675Z,96128.72
2022-10-30T21:46:12.379Z,96118.97
2022-10-30T21:48:40.075Z,96115.13
2022-10-30T21:51:12.948Z,96111.25
2022-10-30T21:53:40.816Z,96115.91
2022-10-30T21:56:17.369Z,96110.94
2022-10-30T21:58:45.204Z,96109.34
2022-10-30T22:01:21.903Z,96108.88
2022-10-30T22:03:49.817Z,96107.41
2022-10-30T22:06:18.656Z,96114.47
2022-10-30T22:08:47.423Z,96112.22
2022-10-30T22:11:15.117Z,96108.53
2022-10-30T22:13:42.734Z,96102.47
2022-10-30T22:16:12.319Z,96116.88
2022-10-30T22:18:40.518Z,96113.34
2022-10-30T22:21:10.431Z,96115.56
2022-10-30T22:23:39.817Z,96119.28
2022-10-30T22:26:11.111Z,96110.63
2022-10-30T22:28:38.758Z,96113.03
2022-10-30T22:31:08.577Z,96110.31
2022-10-30T22:33:36.368Z,96119.28
2022-10-30T22:36:07.624Z,96115.44
2022-10-30T22:38:35.540Z,96113.81
2022-10-30T22:41:09.990Z,96113.97
2022-10-30T22:43:37.724Z,96115.44
2022-10-30T22:46:05.236Z,96123.28
2022-10-30T22:48:32.743Z,96118.16
2022-10-30T22:51:01.429Z,96113.81
2022-10-30T22:53:30.073Z,96099.25
2022-10-30T22:55:57.547Z,96116.72
2022-10-30T22:58:29.554Z,96105.66
2022-10-30T23:01:24.507Z,96117.66
2022-10-30T23:03:54.765Z,96117.66
2022-10-30T23:06:22.469Z,96116.06
2022-10-30T23:08:52.615Z,96105.00
2022-10-30T23:11:20.656Z,96117.50
2022-10-30T23:13:49.576Z,96101.84
2022-10-30T23:16:19.772Z,96093.19
2022-10-30T23:18:48.187Z,96103.25
2022-10-30T23:21:20.953Z,96110.94
2022-10-30T23:23:48.950Z,96106.13
2022-10-30T23:26:19.612Z,96102.94
2022-10-30T23:28:48.625Z,96097.03
2022-10-30T23:31:23.492Z,96099.25
2022-10-30T23:33:53.560Z,96093.94
2022-10-30T23:36:21.636Z,96092.84
2022-10-30T23:38:53.532Z,96098.94
2022-10-30T23:41:21.927Z,96103.88
2022-10-30T23:43:53.612Z,96085.31
2022-10-30T23:46:21.671Z,96100.03
2022-10-30T23:48:49.325Z,96099.22
2022-10-30T23:51:17.032Z,96077.41
2022-10-30T23:53:44.503Z,96100.50
2022-10-30T23:56:12.616Z,96096.81
2022-10-30T23:58:43.866Z,96096.66
